Time,TemperatureF,DewpointF,PressureIn,WindDirection,WindDirectionDegrees,WindSpeedMPH,WindSpeedGustMPH,Humidity,HourlyPrecipIn,Conditions,Clouds,dailyrainin,SoftwareType,DateUTC
2013-03-18 00:00:00,44.4,35.2,30.15,NNE,22,0.0,1.3,70,0.00,,---,0.00,VWS V13.01,2013-03-17 22:00:00,
2013-03-18 00:05:00,44.4,35.2,30.15,NE,45,1.1,1.1,70,0.00,,---,0.00,VWS V13.01,2013-03-17 22:05:00,
2013-03-18 00:10:00,44.4,35.2,30.15,NNW,337,0.0,1.6,70,0.00,,---,0.00,VWS V13.01,2013-03-17 22:10:00,
2013-03-18 00:15:00,44.2,35.0,30.16,NNW,337,3.4,3.6,70,0.00,,---,0.00,VWS V13.01,2013-03-17 22:15:00,
2013-03-18 00:20:00,44.2,35.0,30.16,NNW,337,2.5,2.7,70,0.00,,---,0.00,VWS V13.01,2013-03-17 22:20:00,
2013-03-18 00:25:00,44.2,35.0,30.15,NNW,337,0.0,2.9,70,0.00,,---,0.00,VWS V13.01,2013-03-17 22:25:00,
2013-03-18 00:30:00,44.1,35.0,30.15,NW,315,0.0,2.5,70,0.00,,---,0.00,VWS V13.01,2013-03-17 22:30:00,
2013-03-18 00:35:00,43.9,34.8,30.15,NNW,337,2.9,2.9,70,0.00,,---,0.00,VWS V13.01,2013-03-17 22:35:00,
2013-03-18 00:40:00,43.9,34.8,30.16,NNW,337,3.1,3.4,70,0.00,,---,0.00,VWS V13.01,2013-03-17 22:40:00,
2013-03-18 00:45:00,43.7,34.6,30.16,NNW,337,3.1,3.1,70,0.00,,---,0.00,VWS V13.01,2013-03-17 22:45:00,
2013-03-18 00:50:00,43.7,34.6,30.16,NNW,337,1.3,3.4,70,0.00,,---,0.00,VWS V13.01,2013-03-17 22:50:00,
2013-03-18 00:55:00,43.5,34.4,30.16,NNW,337,1.8,2.0,70,0.00,,---,0.00,VWS V13.01,2013-03-17 22:55:00,
2013-03-18 01:00:00,43.5,34.7,30.16,NNW,337,4.0,4.0,71,0.00,,---,0.00,VWS V13.01,2013-03-17 23:00:00,
2013-03-18 01:05:00,43.5,34.7,30.17,NW,315,1.3,3.1,71,0.00,,---,0.00,VWS V13.01,2013-03-17 23:05:00,
2013-03-18 01:10:00,43.5,34.7,30.17,NNE,22,3.6,3.6,71,0.00,,---,0.00,VWS V13.01,2013-03-17 23:10:00,
2013-03-18 01:15:00,43.5,34.7,30.17,North,0,0.0,2.9,71,0.00,,---,0.00,VWS V13.01,2013-03-17 23:15:00,
2013-03-18 01:20:00,43.5,34.7,30.17,NE,45,0.0,2.0,71,0.00,,---,0.00,VWS V13.01,2013-03-17 23:20:00,
2013-03-18 01:25:00,43.5,34.7,30.16,North,0,1.8,1.8,71,0.00,,---,0.00,VWS V13.01,2013-03-17 23:25:00,
2013-03-18 01:30:00,43.5,34.7,30.16,North,0,1.6,3.4,71,0.00,,---,0.00,VWS V13.01,2013-03-17 23:30:00,
2013-03-18 01:35:00,43.5,34.7,30.16,North,0,0.0,3.4,71,0.00,,---,0.00,VWS V13.01,2013-03-17 23:35:00,
2013-03-18 01:40:00,43.5,34.7,30.16,North,0,0.0,1.3,71,0.00,,---,0.00,VWS V13.01,2013-03-17 23:40:00,
2013-03-18 01:45:00,43.5,35.1,30.16,NNE,22,0.0,2.5,72,0.00,,---,0.00,VWS V13.01,2013-03-17 23:45:00,
2013-03-18 01:50:00,43.5,35.1,30.16,North,0,0.0,1.3,72,0.00,,---,0.00,VWS V13.01,2013-03-17 23:50:00,
2013-03-18 01:56:00,43.5,35.1,30.16,NW,315,0.0,0.7,72,0.00,,---,0.00,VWS V13.01,2013-03-17 23:56:00,
2013-03-18 02:01:00,43.5,35.1,30.15,North,0,0.9,1.1,72,0.00,,---,0.00,VWS V13.01,2013-03-18 00:01:00,
2013-03-18 02:06:00,43.3,34.9,30.15,NNW,337,1.3,3.8,72,0.00,,---,0.00,VWS V13.01,2013-03-18 00:06:00,
2013-03-18 02:11:00,43.3,34.9,30.15,North,0,2.9,3.4,72,0.00,,---,0.00,VWS V13.01,2013-03-18 00:11:00,
2013-03-18 02:16:00,43.3,34.9,30.15,NW,315,2.2,4.0,72,0.00,,---,0.00,VWS V13.01,2013-03-18 00:16:00,
2013-03-18 02:21:00,43.0,34.6,30.15,North,0,2.9,4.3,72,0.00,,---,0.00,VWS V13.01,2013-03-18 00:21:00,
2013-03-18 02:26:00,43.0,34.6,30.14,North,0,4.3,4.3,72,0.00,,---,0.00,VWS V13.01,2013-03-18 00:26:00,
2013-03-18 02:31:00,43.0,34.6,30.15,NNE,22,3.6,3.8,72,0.00,,---,0.00,VWS V13.01,2013-03-18 00:31:00,
2013-03-18 02:36:00,43.0,34.6,30.14,North,0,0.0,3.4,72,0.00,,---,0.00,VWS V13.01,2013-03-18 00:36:00,
2013-03-18 02:41:00,43.0,35.0,30.14,North,0,1.8,3.1,73,0.00,,---,0.00,VWS V13.01,2013-03-18 00:41:00,
2013-03-18 02:46:00,43.0,35.0,30.14,North,0,2.5,2.5,73,0.00,,---,0.00,VWS V13.01,2013-03-18 00:46:00,
2013-03-18 02:51:00,43.0,35.0,30.14,NNW,337,2.5,2.9,73,0.00,,---,0.00,VWS V13.01,2013-03-18 00:51:00,
2013-03-18 02:56:00,43.0,35.0,30.14,NNE,22,1.8,3.6,73,0.00,,---,0.00,VWS V13.01,2013-03-18 00:56:00,
2013-03-18 03:01:00,43.0,35.0,30.14,NNW,337,2.9,3.4,73,0.00,,---,0.00,VWS V13.01,2013-03-18 01:01:00,
2013-03-18 03:06:00,42.8,34.8,30.14,NNW,337,3.1,4.9,73,0.00,,---,0.00,VWS V13.01,2013-03-18 01:06:00,
2013-03-18 03:11:00,42.6,34.6,30.14,NNW,337,2.5,4.7,73,0.00,,---,0.00,VWS V13.01,2013-03-18 01:11:00,
2013-03-18 03:16:00,42.6,34.6,30.14,North,0,2.5,2.5,73,0.00,,---,0.00,VWS V13.01,2013-03-18 01:16:00,
2013-03-18 03:21:00,42.6,34.6,30.14,North,0,1.8,3.8,73,0.00,,---,0.00,VWS V13.01,2013-03-18 01:21:00,
2013-03-18 03:26:00,42.6,34.6,30.13,North,0,1.1,3.8,73,0.00,,---,0.00,VWS V13.01,2013-03-18 01:26:00,
2013-03-18 03:31:00,42.6,34.6,30.13,North,0,3.6,3.6,73,0.00,,---,0.00,VWS V13.01,2013-03-18 01:31:00,
2013-03-18 03:36:00,43.0,35.3,30.13,NNE,22,3.6,3.6,74,0.00,,---,0.00,VWS V13.01,2013-03-18 01:36:00,
2013-03-18 03:41:00,43.0,35.3,30.13,North,0,0.7,4.7,74,0.00,,---,0.00,VWS V13.01,2013-03-18 01:41:00,
2013-03-18 03:47:00,43.2,35.5,30.13,North,0,2.0,2.9,74,0.00,,---,0.00,VWS V13.01,2013-03-18 01:47:00,
2013-03-18 03:52:00,43.3,35.6,30.13,North,0,0.0,2.2,74,0.00,,---,0.00,VWS V13.01,2013-03-18 01:52:00,
2013-03-18 03:57:00,43.3,35.6,30.13,North,0,1.6,2.9,74,0.00,,---,0.00,VWS V13.01,2013-03-18 01:57:00,
2013-03-18 04:02:00,43.5,35.8,30.13,NW,315,3.4,3.4,74,0.00,,---,0.00,VWS V13.01,2013-03-18 02:02:00,
2013-03-18 04:07:00,43.5,35.8,30.13,North,0,0.0,2.5,74,0.00,,---,0.00,VWS V13.01,2013-03-18 02:07:00,
2013-03-18 04:12:00,43.5,35.8,30.13,North,0,1.3,1.3,74,0.00,,---,0.00,VWS V13.01,2013-03-18 02:12:00,
2013-03-18 04:17:00,43.5,35.8,30.13,NNW,337,0.0,2.5,74,0.00,,---,0.00,VWS V13.01,2013-03-18 02:17:00,
2013-03-18 04:22:00,43.5,35.8,30.13,North,0,3.4,3.4,74,0.00,,---,0.00,VWS V13.01,2013-03-18 02:22:00,
2013-03-18 04:27:00,43.5,35.8,30.13,North,0,0.0,2.2,74,0.00,,---,0.00,VWS V13.01,2013-03-18 02:27:00,
2013-03-18 04:32:00,43.5,35.8,30.13,NNW,337,1.8,1.8,74,0.00,,---,0.00,VWS V13.01,2013-03-18 02:32:00,
2013-03-18 04:37:00,43.5,35.8,30.13,North,0,2.5,4.0,74,0.00,,---,0.00,VWS V13.01,2013-03-18 02:37:00,
2013-03-18 04:42:00,43.5,35.8,30.13,NNW,337,3.4,4.3,74,0.00,,---,0.00,VWS V13.01,2013-03-18 02:42:00,
2013-03-18 04:47:00,43.5,35.8,30.13,NNW,337,1.1,1.8,74,0.00,,---,0.00,VWS V13.01,2013-03-18 02:47:00,
2013-03-18 04:52:00,43.5,35.8,30.13,NW,315,1.3,2.0,74,0.00,,---,0.00,VWS V13.01,2013-03-18 02:52:00,
2013-03-18 04:57:00,43.5,35.8,30.13,NW,315,0.0,3.4,74,0.00,,---,0.00,VWS V13.01,2013-03-18 02:57:00,
2013-03-18 05:02:00,43.3,35.6,30.13,NNW,337,0.0,3.6,74,0.00,,---,0.00,VWS V13.01,2013-03-18 03:02:00,
2013-03-18 05:07:00,43.3,35.6,30.13,NNE,22,4.0,5.1,74,0.00,,---,0.00,VWS V13.01,2013-03-18 03:07:00,
2013-03-18 05:12:00,43.3,35.6,30.14,North,0,0.0,1.6,74,0.00,,---,0.00,VWS V13.01,2013-03-18 03:12:00,
2013-03-18 05:17:00,43.3,35.6,30.13,NW,315,0.0,2.9,74,0.00,,---,0.00,VWS V13.01,2013-03-18 03:17:00,
2013-03-18 05:22:00,43.3,35.6,30.13,NNW,337,1.3,2.9,74,0.00,,---,0.00,VWS V13.01,2013-03-18 03:22:00,
2013-03-18 05:27:00,43.3,35.6,30.13,NNE,22,0.0,2.5,74,0.00,,---,0.00,VWS V13.01,2013-03-18 03:27:00,
2013-03-18 05:32:00,43.3,35.9,30.12,North,0,2.0,2.0,75,0.00,,---,0.00,VWS V13.01,2013-03-18 03:32:00,
2013-03-18 05:37:00,43.3,35.9,30.13,North,0,1.6,2.9,75,0.00,,---,0.00,VWS V13.01,2013-03-18 03:37:00,
2013-03-18 05:42:00,43.3,35.9,30.13,North,0,2.0,2.0,75,0.00,,---,0.00,VWS V13.01,2013-03-18 03:42:00,
2013-03-18 05:47:00,43.3,35.9,30.13,North,0,0.0,2.0,75,0.00,,---,0.00,VWS V13.01,2013-03-18 03:47:00,
2013-03-18 05:52:00,43.5,36.1,30.13,NNE,22,0.9,2.7,75,0.00,,---,0.00,VWS V13.01,2013-03-18 03:52:00,
2013-03-18 05:57:00,43.5,36.1,30.13,NW,315,1.1,3.1,75,0.00,,---,0.00,VWS V13.01,2013-03-18 03:57:00,
2013-03-18 06:00:00,43.5,36.1,30.13,NNW,337,2.5,3.1,75,0.00,,---,0.00,VWS V13.01,2013-03-18 04:00:00,
2013-03-18 06:05:00,43.5,36.5,30.13,NNW,337,2.9,4.9,76,0.00,,---,0.00,VWS V13.01,2013-03-18 04:05:00,
2013-03-18 06:10:00,43.5,36.5,30.14,North,0,2.9,3.1,76,0.00,,---,0.00,VWS V13.01,2013-03-18 04:10:00,
2013-03-18 06:15:00,43.5,36.5,30.13,North,0,2.2,3.8,76,0.00,,---,0.00,VWS V13.01,2013-03-18 04:15:00,
2013-03-18 06:20:00,43.7,36.6,30.13,North,0,3.1,3.1,76,0.00,,---,0.00,VWS V13.01,2013-03-18 04:20:00,
2013-03-18 06:25:00,43.9,36.8,30.13,North,0,2.0,3.8,76,0.00,,---,0.00,VWS V13.01,2013-03-18 04:25:00,
2013-03-18 06:30:00,43.9,36.8,30.12,NE,45,0.0,1.1,76,0.00,,---,0.00,VWS V13.01,2013-03-18 04:30:00,
2013-03-18 06:35:00,43.9,36.8,30.12,NNE,22,0.9,0.9,76,0.00,,---,0.00,VWS V13.01,2013-03-18 04:35:00,
2013-03-18 06:40:00,44.1,37.4,30.12,NNW,337,2.2,2.2,77,0.00,,---,0.00,VWS V13.01,2013-03-18 04:40:00,
2013-03-18 06:45:00,44.2,37.5,30.12,NE,45,0.0,1.8,77,0.00,,---,0.00,VWS V13.01,2013-03-18 04:45:00,
2013-03-18 06:50:00,44.2,37.5,30.13,NNW,337,0.0,1.3,77,0.00,,---,0.00,VWS V13.01,2013-03-18 04:50:00,
2013-03-18 06:55:00,44.4,37.7,30.13,NNW,337,0.9,2.2,77,0.00,,---,0.00,VWS V13.01,2013-03-18 04:55:00,
2013-03-18 07:00:00,44.4,37.7,30.13,NNW,337,0.0,1.3,77,0.00,,---,0.00,VWS V13.01,2013-03-18 05:00:00,
2013-03-18 07:05:00,44.4,37.7,30.13,North,0,3.6,3.6,77,0.00,,---,0.00,VWS V13.01,2013-03-18 05:05:00,
2013-03-18 07:10:00,44.4,37.7,30.12,NW,315,2.5,3.6,77,0.00,,---,0.00,VWS V13.01,2013-03-18 05:10:00,
2013-03-18 07:15:00,44.4,37.7,30.13,NNE,22,0.0,3.8,77,0.00,,---,0.00,VWS V13.01,2013-03-18 05:15:00,
2013-03-18 07:20:00,44.4,37.7,30.12,North,0,2.9,3.1,77,0.00,,---,0.00,VWS V13.01,2013-03-18 05:20:00,
2013-03-18 07:25:00,44.4,37.7,30.12,NNE,22,3.8,5.1,77,0.00,,---,0.00,VWS V13.01,2013-03-18 05:25:00,
2013-03-18 07:30:00,44.4,37.7,30.12,NNE,22,2.5,2.7,77,0.00,,---,0.00,VWS V13.01,2013-03-18 05:30:00,
2013-03-18 07:35:00,44.4,37.7,30.12,NNW,337,2.0,4.3,77,0.00,,---,0.00,VWS V13.01,2013-03-18 05:35:00,
2013-03-18 07:41:00,44.8,38.0,30.12,North,0,1.8,3.6,77,0.00,,---,0.00,VWS V13.01,2013-03-18 05:41:00,
2013-03-18 07:46:00,44.8,38.0,30.12,North,0,2.0,4.5,77,0.00,,---,0.00,VWS V13.01,2013-03-18 05:46:00,
2013-03-18 07:51:00,45.1,38.3,30.12,North,0,1.8,2.9,77,0.00,,---,0.00,VWS V13.01,2013-03-18 05:51:00,
2013-03-18 07:56:00,45.3,38.5,30.12,North,0,2.5,3.1,77,0.00,,---,0.00,VWS V13.01,2013-03-18 05:56:00,
2013-03-18 08:01:00,45.7,38.9,30.12,North,0,2.5,2.5,77,0.00,,---,0.00,VWS V13.01,2013-03-18 06:01:00,
2013-03-18 08:06:00,46.2,39.4,30.12,North,0,0.7,0.9,77,0.00,,---,0.00,VWS V13.01,2013-03-18 06:06:00,
2013-03-18 08:11:00,46.6,39.8,30.12,North,0,0.0,1.1,77,0.00,,---,0.00,VWS V13.01,2013-03-18 06:11:00,
2013-03-18 08:16:00,46.9,40.1,30.12,NNW,337,1.3,2.5,77,0.00,,---,0.00,VWS V13.01,2013-03-18 06:16:00,
2013-03-18 08:22:00,47.1,40.3,30.12,North,0,1.3,1.3,77,0.00,,---,0.00,VWS V13.01,2013-03-18 06:22:00,
2013-03-18 08:27:00,47.5,40.7,30.12,WNW,292,0.0,2.5,77,0.00,,---,0.00,VWS V13.01,2013-03-18 06:27:00,
2013-03-18 08:32:00,48.0,41.2,30.12,NNW,337,0.0,2.5,77,0.00,,---,0.00,VWS V13.01,2013-03-18 06:32:00,
2013-03-18 08:37:00,48.4,41.2,30.13,NNW,337,0.0,2.5,76,0.00,,---,0.00,VWS V13.01,2013-03-18 06:37:00,
2013-03-18 08:42:00,48.7,41.5,30.12,NNW,337,1.3,1.3,76,0.00,,---,0.00,VWS V13.01,2013-03-18 06:42:00,
2013-03-18 08:47:00,49.1,41.5,30.12,NNW,337,2.0,2.0,75,0.00,,---,0.00,VWS V13.01,2013-03-18 06:47:00,
2013-03-18 08:52:00,49.3,41.7,30.12,NW,315,0.0,2.2,75,0.00,,---,0.00,VWS V13.01,2013-03-18 06:52:00,
2013-03-18 08:57:00,49.8,41.9,30.12,West,270,0.0,1.3,74,0.00,,---,0.00,VWS V13.01,2013-03-18 06:57:00,
2013-03-18 09:02:00,52.2,41.6,30.12,SE,135,0.0,1.3,67,0.00,,---,0.00,VWS V13.01,2013-03-18 07:02:00,
2013-03-18 09:07:00,53.2,41.0,30.12,SSW,202,0.0,5.1,63,0.00,,---,0.00,VWS V13.01,2013-03-18 07:07:00,
2013-03-18 09:12:00,53.8,40.3,30.12,SE,135,0.0,3.6,60,0.00,,---,0.00,VWS V13.01,2013-03-18 07:12:00,
2013-03-18 09:17:00,53.8,39.4,30.12,SSE,157,2.2,2.2,58,0.00,,---,0.00,VWS V13.01,2013-03-18 07:17:00,
2013-03-18 09:22:00,54.0,39.1,30.12,SSE,157,1.3,2.9,57,0.00,,---,0.00,VWS V13.01,2013-03-18 07:22:00,
2013-03-18 09:27:00,54.3,39.4,30.11,West,270,0.0,3.6,57,0.00,,---,0.00,VWS V13.01,2013-03-18 07:27:00,
2013-03-18 09:32:00,54.3,39.0,30.11,South,180,1.3,2.0,56,0.00,,---,0.00,VWS V13.01,2013-03-18 07:32:00,
2013-03-18 09:37:00,54.7,38.9,30.11,South,180,6.5,6.5,55,0.00,,---,0.00,VWS V13.01,2013-03-18 07:37:00,
2013-03-18 09:42:00,54.7,38.9,30.11,SSE,157,1.6,4.3,55,0.00,,---,0.00,VWS V13.01,2013-03-18 07:42:00,
2013-03-18 09:47:00,55.2,39.3,30.11,SSE,157,3.8,5.8,55,0.00,,---,0.00,VWS V13.01,2013-03-18 07:47:00,
2013-03-18 09:52:00,55.4,39.0,30.11,WSW,247,3.6,8.9,54,0.00,,---,0.00,VWS V13.01,2013-03-18 07:52:00,
2013-03-18 09:57:00,55.6,39.2,30.11,SSE,157,0.0,5.1,54,0.00,,---,0.00,VWS V13.01,2013-03-18 07:57:00,
2013-03-18 10:02:00,55.9,39.0,30.11,SSW,202,3.1,9.4,53,0.00,,---,0.00,VWS V13.01,2013-03-18 08:02:00,
2013-03-18 10:07:00,55.6,39.7,30.12,SSE,157,0.0,1.6,55,0.00,,---,0.00,VWS V13.01,2013-03-18 08:07:00,
2013-03-18 10:12:00,55.6,39.2,30.12,SSE,157,3.8,10.1,54,0.00,,---,0.00,VWS V13.01,2013-03-18 08:12:00,
2013-03-18 10:18:00,55.2,39.3,30.12,SSW,202,0.0,5.4,55,0.00,,---,0.00,VWS V13.01,2013-03-18 08:18:00,
2013-03-18 10:23:00,55.4,39.5,30.11,SSE,157,0.0,7.6,55,0.00,,---,0.00,VWS V13.01,2013-03-18 08:23:00,
2013-03-18 10:28:00,55.4,39.0,30.11,SSW,202,1.8,9.8,54,0.00,,---,0.00,VWS V13.01,2013-03-18 08:28:00,
2013-03-18 10:33:00,55.4,39.5,30.11,SSE,157,3.8,4.0,55,0.00,,---,0.00,VWS V13.01,2013-03-18 08:33:00,
2013-03-18 10:37:00,55.6,39.7,30.11,South,180,2.2,9.6,55,0.00,,---,0.00,VWS V13.01,2013-03-18 08:37:00,
2013-03-18 10:42:00,55.9,40.0,30.11,South,180,6.5,6.7,55,0.00,,---,0.00,VWS V13.01,2013-03-18 08:42:00,
2013-03-18 10:48:00,55.9,39.0,30.11,SSW,202,9.6,9.6,53,0.00,,---,0.00,VWS V13.01,2013-03-18 08:48:00,
2013-03-18 10:53:00,56.1,39.2,30.11,SW,225,3.8,3.8,53,0.00,,---,0.00,VWS V13.01,2013-03-18 08:53:00,
2013-03-18 10:58:00,56.1,39.2,30.11,SW,225,2.2,7.2,53,0.00,,---,0.00,VWS V13.01,2013-03-18 08:58:00,
2013-03-18 11:03:00,56.1,39.7,30.11,SE,135,0.0,4.7,54,0.00,,---,0.00,VWS V13.01,2013-03-18 09:03:00,
2013-03-18 11:08:00,55.9,39.5,30.11,SSE,157,3.4,3.4,54,0.00,,---,0.00,VWS V13.01,2013-03-18 09:08:00,
2013-03-18 11:13:00,55.9,40.0,30.11,SSW,202,4.5,5.8,55,0.00,,---,0.00,VWS V13.01,2013-03-18 09:13:00,
2013-03-18 11:18:00,56.1,40.2,30.10,WSW,247,8.3,8.9,55,0.00,,---,0.00,VWS V13.01,2013-03-18 09:18:00,
2013-03-18 11:23:00,56.8,40.3,30.11,SSW,202,6.7,6.7,54,0.00,,---,0.00,VWS V13.01,2013-03-18 09:23:00,
2013-03-18 11:28:00,57.4,40.4,30.10,SSW,202,2.0,2.0,53,0.00,,---,0.00,VWS V13.01,2013-03-18 09:28:00,
2013-03-18 11:33:00,57.0,39.6,30.10,SE,135,10.3,11.0,52,0.00,,---,0.00,VWS V13.01,2013-03-18 09:33:00,
2013-03-18 11:38:00,57.0,40.1,30.10,SE,135,11.4,11.4,53,0.00,,---,0.00,VWS V13.01,2013-03-18 09:38:00,
2013-03-18 11:43:00,57.0,40.1,30.10,SSE,157,2.2,6.9,53,0.00,,---,0.00,VWS V13.01,2013-03-18 09:43:00,
2013-03-18 11:48:00,57.4,40.4,30.09,South,180,1.6,1.6,53,0.00,,---,0.00,VWS V13.01,2013-03-18 09:48:00,
2013-03-18 11:53:00,57.0,40.1,30.09,SSW,202,11.4,11.4,53,0.00,,---,0.00,VWS V13.01,2013-03-18 09:53:00,
2013-03-18 11:58:00,57.0,40.1,30.10,SW,225,4.3,4.3,53,0.00,,---,0.00,VWS V13.01,2013-03-18 09:58:00,
2013-03-18 12:03:00,57.4,39.9,30.10,SSW,202,3.4,5.4,52,0.00,,---,0.00,VWS V13.01,2013-03-18 10:03:00,
2013-03-18 12:08:00,57.6,40.1,30.09,South,180,7.4,7.4,52,0.00,,---,0.00,VWS V13.01,2013-03-18 10:08:00,
2013-03-18 12:13:00,57.6,40.1,30.09,SSW,202,4.5,6.5,52,0.00,,---,0.00,VWS V13.01,2013-03-18 10:13:00,
2013-03-18 12:18:00,57.6,40.1,30.09,SSW,202,3.1,3.1,52,0.00,,---,0.00,VWS V13.01,2013-03-18 10:18:00,
2013-03-18 12:23:00,57.4,39.9,30.09,SSW,202,8.7,9.2,52,0.00,,---,0.00,VWS V13.01,2013-03-18 10:23:00,
2013-03-18 12:28:00,57.0,39.6,30.09,SW,225,5.1,7.2,52,0.00,,---,0.00,VWS V13.01,2013-03-18 10:28:00,
2013-03-18 12:33:00,57.0,40.1,30.09,South,180,6.0,7.4,53,0.00,,---,0.00,VWS V13.01,2013-03-18 10:33:00,
2013-03-18 12:38:00,56.8,39.9,30.08,SSE,157,1.1,2.9,53,0.00,,---,0.00,VWS V13.01,2013-03-18 10:38:00,
2013-03-18 12:43:00,56.8,40.3,30.09,SW,225,1.3,10.5,54,0.00,,---,0.00,VWS V13.01,2013-03-18 10:43:00,
2013-03-18 12:48:00,56.7,40.3,30.09,South,180,0.9,3.8,54,0.00,,---,0.00,VWS V13.01,2013-03-18 10:48:00,
2013-03-18 12:53:00,56.5,40.5,30.08,South,180,1.1,1.8,55,0.00,,---,0.00,VWS V13.01,2013-03-18 10:53:00,
2013-03-18 12:58:00,56.1,40.2,30.08,SSW,202,7.4,8.3,55,0.00,,---,0.00,VWS V13.01,2013-03-18 10:58:00,
2013-03-18 13:03:00,55.9,40.0,30.08,SSE,157,3.1,4.3,55,0.00,,---,0.00,VWS V13.01,2013-03-18 11:03:00,
2013-03-18 13:08:00,55.6,40.2,30.08,SSW,202,8.3,8.5,56,0.00,,---,0.00,VWS V13.01,2013-03-18 11:08:00,
2013-03-18 13:13:00,55.4,40.4,30.07,SSE,157,5.4,5.4,57,0.00,,---,0.00,VWS V13.01,2013-03-18 11:13:00,
2013-03-18 13:18:00,55.6,40.6,30.06,SSE,157,0.0,2.5,57,0.00,,---,0.00,VWS V13.01,2013-03-18 11:18:00,
2013-03-18 13:23:00,55.6,40.2,30.06,SSW,202,0.0,4.0,56,0.00,,---,0.00,VWS V13.01,2013-03-18 11:23:00,
2013-03-18 13:28:00,55.9,40.5,30.05,SW,225,6.3,7.2,56,0.00,,---,0.00,VWS V13.01,2013-03-18 11:28:00,
2013-03-18 13:33:00,55.8,40.4,30.05,SSW,202,2.9,7.4,56,0.00,,---,0.00,VWS V13.01,2013-03-18 11:33:00,
2013-03-18 13:38:00,55.6,40.6,30.05,SSW,202,1.6,8.5,57,0.00,,---,0.00,VWS V13.01,2013-03-18 11:38:00,
2013-03-18 13:43:00,55.6,41.1,30.05,SSW,202,5.6,5.6,58,0.00,,---,0.00,VWS V13.01,2013-03-18 11:43:00,
2013-03-18 13:48:00,55.8,41.7,30.05,SW,225,5.1,5.6,59,0.00,,---,0.00,VWS V13.01,2013-03-18 11:48:00,
2013-03-18 13:53:00,55.6,41.5,30.04,SSE,157,2.5,5.1,59,0.00,,---,0.00,VWS V13.01,2013-03-18 11:53:00,
2013-03-18 13:58:00,55.6,41.5,30.04,South,180,4.5,6.3,59,0.00,,---,0.00,VWS V13.01,2013-03-18 11:58:00,
2013-03-18 14:03:00,55.8,41.3,30.04,SSW,202,6.3,6.3,58,0.00,,---,0.00,VWS V13.01,2013-03-18 12:03:00,
2013-03-18 14:08:00,55.6,41.1,30.04,South,180,1.1,1.6,58,0.00,,---,0.00,VWS V13.01,2013-03-18 12:08:00,
2013-03-18 14:13:00,55.6,41.1,30.04,SW,225,4.5,6.7,58,0.00,,---,0.00,VWS V13.01,2013-03-18 12:13:00,
2013-03-18 14:18:00,55.4,42.2,30.03,SW,225,3.6,8.1,61,0.00,,---,0.00,VWS V13.01,2013-03-18 12:18:00,
2013-03-18 14:23:00,55.2,42.0,30.03,SSW,202,7.2,8.5,61,0.00,,---,0.00,VWS V13.01,2013-03-18 12:23:00,
2013-03-18 14:28:00,55.0,41.8,30.03,SW,225,3.6,4.7,61,0.00,,---,0.00,VWS V13.01,2013-03-18 12:28:00,
2013-03-18 14:33:00,55.2,41.1,30.04,South,180,1.8,6.0,59,0.00,,---,0.00,VWS V13.01,2013-03-18 12:33:00,
2013-03-18 14:38:00,55.4,40.9,30.04,South,180,3.8,6.0,58,0.00,,---,0.00,VWS V13.01,2013-03-18 12:38:00,
2013-03-18 14:43:00,55.4,40.9,30.04,SSE,157,6.3,6.3,58,0.00,,---,0.00,VWS V13.01,2013-03-18 12:43:00,
2013-03-18 14:48:00,55.6,41.1,30.04,SSE,157,2.5,5.8,58,0.00,,---,0.00,VWS V13.01,2013-03-18 12:48:00,
2013-03-18 14:53:00,55.4,40.9,30.03,SSE,157,3.1,4.7,58,0.00,,---,0.00,VWS V13.01,2013-03-18 12:53:00,
2013-03-18 14:58:00,55.2,40.7,30.03,South,180,4.9,12.1,58,0.00,,---,0.00,VWS V13.01,2013-03-18 12:58:00,
2013-03-18 15:03:00,55.2,40.7,30.02,SSW,202,7.6,7.6,58,0.00,,---,0.00,VWS V13.01,2013-03-18 13:03:00,
2013-03-18 15:08:00,55.2,41.1,30.02,South,180,5.4,5.4,59,0.00,,---,0.00,VWS V13.01,2013-03-18 13:08:00,
2013-03-18 15:13:00,55.4,41.3,30.02,SSW,202,4.3,9.2,59,0.00,,---,0.00,VWS V13.01,2013-03-18 13:13:00,
2013-03-18 15:18:00,55.4,41.3,30.02,SSE,157,3.8,6.5,59,0.00,,---,0.00,VWS V13.01,2013-03-18 13:18:00,
2013-03-18 15:24:00,55.4,41.3,30.02,South,180,6.5,10.5,59,0.00,,---,0.00,VWS V13.01,2013-03-18 13:24:00,
2013-03-18 15:29:00,55.2,41.6,30.02,South,180,5.4,8.9,60,0.00,,---,0.00,VWS V13.01,2013-03-18 13:29:00,
2013-03-18 15:34:00,55.2,41.6,30.02,West,270,4.5,9.8,60,0.00,,---,0.00,VWS V13.01,2013-03-18 13:34:00,
2013-03-18 15:39:00,55.2,41.6,30.02,SW,225,7.8,9.8,60,0.00,,---,0.00,VWS V13.01,2013-03-18 13:39:00,
2013-03-18 15:44:00,55.2,42.0,30.02,SE,135,4.5,8.7,61,0.00,,---,0.00,VWS V13.01,2013-03-18 13:44:00,
2013-03-18 15:49:00,55.2,42.4,30.02,South,180,1.8,5.6,62,0.00,,---,0.00,VWS V13.01,2013-03-18 13:49:00,
2013-03-18 15:54:00,55.0,42.2,30.01,SSW,202,0.0,4.5,62,0.00,,---,0.00,VWS V13.01,2013-03-18 13:54:00,
2013-03-18 15:59:00,55.0,42.7,30.01,SSW,202,10.7,10.7,63,0.00,,---,0.00,VWS V13.01,2013-03-18 13:59:00,
2013-03-18 16:04:00,54.9,43.0,30.01,SW,225,5.4,8.7,64,0.00,,---,0.00,VWS V13.01,2013-03-18 14:04:00,
2013-03-18 16:09:00,54.7,43.2,30.01,SW,225,3.4,10.5,65,0.00,,---,0.00,VWS V13.01,2013-03-18 14:09:00,
2013-03-18 16:14:00,54.7,43.2,30.01,SSW,202,8.3,8.3,65,0.00,,---,0.00,VWS V13.01,2013-03-18 14:14:00,
2013-03-18 16:19:00,54.5,43.4,30.01,South,180,5.4,11.9,66,0.00,,---,0.00,VWS V13.01,2013-03-18 14:19:00,
2013-03-18 16:24:00,54.3,43.2,30.01,SW,225,3.1,10.1,66,0.00,,---,0.00,VWS V13.01,2013-03-18 14:24:00,
2013-03-18 16:29:00,54.3,43.6,30.02,SSE,157,2.5,5.4,67,0.00,,---,0.00,VWS V13.01,2013-03-18 14:29:00,
2013-03-18 16:34:00,54.1,43.8,30.02,South,180,0.9,3.6,68,0.00,,---,0.00,VWS V13.01,2013-03-18 14:34:00,
2013-03-18 16:39:00,54.1,43.8,30.02,SSE,157,4.0,8.3,68,0.00,,---,0.00,VWS V13.01,2013-03-18 14:39:00,
2013-03-18 16:44:00,54.1,43.8,30.01,SSE,157,2.9,2.9,68,0.00,,---,0.00,VWS V13.01,2013-03-18 14:44:00,
2013-03-18 16:49:00,54.0,43.7,30.01,WSW,247,0.0,2.2,68,0.00,,---,0.00,VWS V13.01,2013-03-18 14:49:00,
2013-03-18 16:54:00,53.8,43.9,30.01,SSW,202,3.1,3.1,69,0.00,,---,0.00,VWS V13.01,2013-03-18 14:54:00,
2013-03-18 16:59:00,53.8,43.9,30.01,SSW,202,2.2,6.7,69,0.00,,---,0.00,VWS V13.01,2013-03-18 14:59:00,
2013-03-18 17:04:00,53.8,43.9,30.01,SSW,202,2.9,2.9,69,0.00,,---,0.00,VWS V13.01,2013-03-18 15:04:00,
2013-03-18 17:09:00,53.8,44.3,30.01,South,180,0.0,3.8,70,0.00,,---,0.00,VWS V13.01,2013-03-18 15:09:00,
2013-03-18 17:14:00,53.8,44.3,30.01,SSE,157,2.2,4.3,70,0.00,,---,0.00,VWS V13.01,2013-03-18 15:14:00,
2013-03-18 17:19:00,53.8,44.3,30.01,East,90,0.0,6.0,70,0.00,,---,0.00,VWS V13.01,2013-03-18 15:19:00,
2013-03-18 17:24:00,53.8,44.3,30.01,SSE,157,0.0,1.6,70,0.00,,---,0.00,VWS V13.01,2013-03-18 15:24:00,
2013-03-18 17:29:00,53.8,44.3,30.01,SSW,202,4.0,5.4,70,0.00,,---,0.00,VWS V13.01,2013-03-18 15:29:00,
2013-03-18 17:34:00,53.8,44.6,30.01,South,180,0.0,6.7,71,0.00,,---,0.00,VWS V13.01,2013-03-18 15:34:00,
2013-03-18 17:39:00,53.6,44.4,30.01,South,180,3.1,8.7,71,0.00,,---,0.00,VWS V13.01,2013-03-18 15:39:00,
2013-03-18 17:44:00,53.6,44.4,30.01,SE,135,3.4,3.4,71,0.00,,---,0.00,VWS V13.01,2013-03-18 15:44:00,
2013-03-18 17:49:00,53.6,44.4,30.01,SW,225,8.9,8.9,71,0.00,,---,0.00,VWS V13.01,2013-03-18 15:49:00,
2013-03-18 17:54:00,53.6,44.4,30.00,South,180,1.1,1.1,71,0.00,,---,0.00,VWS V13.01,2013-03-18 15:54:00,
2013-03-18 17:59:00,53.8,44.6,29.99,South,180,2.5,6.5,71,0.00,,---,0.00,VWS V13.01,2013-03-18 15:59:00,
2013-03-18 18:04:00,53.8,45.0,29.99,South,180,3.4,4.5,72,0.00,,---,0.00,VWS V13.01,2013-03-18 16:04:00,
2013-03-18 18:09:00,53.8,45.0,29.99,SSW,202,6.3,6.3,72,0.00,,---,0.00,VWS V13.01,2013-03-18 16:09:00,
2013-03-18 18:14:00,53.6,44.8,29.98,SSW,202,3.8,4.0,72,0.00,,---,0.00,VWS V13.01,2013-03-18 16:14:00,
2013-03-18 18:19:00,53.4,45.0,29.98,South,180,2.9,5.4,73,0.00,,---,0.00,VWS V13.01,2013-03-18 16:19:00,
2013-03-18 18:24:00,53.4,45.0,29.98,SSE,157,2.5,2.5,73,0.00,,---,0.00,VWS V13.01,2013-03-18 16:24:00,
2013-03-18 18:29:00,53.4,45.0,29.98,SW,225,0.0,5.4,73,0.00,,---,0.00,VWS V13.01,2013-03-18 16:29:00,
2013-03-18 18:34:00,53.4,45.0,29.98,South,180,2.2,2.2,73,0.00,,---,0.00,VWS V13.01,2013-03-18 16:34:00,
2013-03-18 18:39:00,53.4,45.3,29.98,SSW,202,1.8,5.8,74,0.00,,---,0.00,VWS V13.01,2013-03-18 16:39:00,
2013-03-18 18:44:00,53.2,45.1,29.98,South,180,6.7,6.7,74,0.00,,---,0.00,VWS V13.01,2013-03-18 16:44:00,
2013-03-18 18:49:00,53.2,45.1,29.99,SSE,157,1.3,8.9,74,0.00,,---,0.00,VWS V13.01,2013-03-18 16:49:00,
2013-03-18 18:54:00,53.2,45.1,29.99,SW,225,3.8,5.4,74,0.00,,---,0.00,VWS V13.01,2013-03-18 16:54:00,
2013-03-18 18:59:00,53.2,45.1,29.98,SE,135,6.7,6.7,74,0.00,,---,0.00,VWS V13.01,2013-03-18 16:59:00,
2013-03-18 19:04:00,53.2,45.5,29.98,SSE,157,2.2,7.8,75,0.00,,---,0.00,VWS V13.01,2013-03-18 17:04:00,
2013-03-18 19:09:00,53.2,45.5,29.99,SSE,157,2.5,5.6,75,0.00,,---,0.00,VWS V13.01,2013-03-18 17:09:00,
2013-03-18 19:14:00,52.9,45.2,29.98,SSE,157,0.0,5.4,75,0.00,,---,0.00,VWS V13.01,2013-03-18 17:14:00,
2013-03-18 19:19:00,52.9,45.2,29.98,East,90,2.5,4.0,75,0.00,,---,0.00,VWS V13.01,2013-03-18 17:19:00,
2013-03-18 19:24:00,52.9,45.5,29.99,South,180,9.6,9.6,76,0.00,,---,0.00,VWS V13.01,2013-03-18 17:24:00,
2013-03-18 19:29:00,52.9,45.5,29.98,SSW,202,2.5,4.5,76,0.00,,---,0.00,VWS V13.01,2013-03-18 17:29:00,
2013-03-18 19:34:00,52.9,45.5,29.98,ESE,112,0.0,1.6,76,0.00,,---,0.00,VWS V13.01,2013-03-18 17:34:00,
2013-03-18 19:39:00,52.9,45.5,29.98,SSE,157,2.0,4.0,76,0.00,,---,0.00,VWS V13.01,2013-03-18 17:39:00,
2013-03-18 19:44:00,52.9,45.5,29.98,WSW,247,4.5,5.8,76,0.00,,---,0.00,VWS V13.01,2013-03-18 17:44:00,
2013-03-18 19:49:00,52.9,45.5,29.98,SSW,202,0.9,4.5,76,0.00,,---,0.00,VWS V13.01,2013-03-18 17:49:00,
2013-03-18 19:54:00,52.9,45.5,29.98,SSE,157,4.3,5.1,76,0.00,,---,0.00,VWS V13.01,2013-03-18 17:54:00,
2013-03-18 19:59:00,52.9,45.5,29.98,SE,135,0.0,4.3,76,0.00,,---,0.00,VWS V13.01,2013-03-18 17:59:00,
2013-03-18 20:04:00,52.9,45.5,29.98,SSW,202,2.9,5.8,76,0.00,,---,0.00,VWS V13.01,2013-03-18 18:04:00,
2013-03-18 20:09:00,52.9,45.9,29.98,SE,135,2.9,6.5,77,0.00,,---,0.00,VWS V13.01,2013-03-18 18:09:00,
2013-03-18 20:14:00,52.9,45.9,29.98,South,180,0.0,0.9,77,0.00,,---,0.00,VWS V13.01,2013-03-18 18:14:00,
2013-03-18 20:19:00,52.9,45.9,29.98,South,180,5.1,5.1,77,0.00,,---,0.00,VWS V13.01,2013-03-18 18:19:00,
2013-03-18 20:24:00,52.9,45.9,29.98,South,180,0.0,1.1,77,0.00,,---,0.00,VWS V13.01,2013-03-18 18:24:00,
2013-03-18 20:29:00,52.9,45.9,29.98,SSW,202,2.7,6.0,77,0.00,,---,0.00,VWS V13.01,2013-03-18 18:29:00,
2013-03-18 20:34:00,52.9,45.9,29.98,SE,135,1.1,4.9,77,0.00,,---,0.00,VWS V13.01,2013-03-18 18:34:00,
2013-03-18 20:39:00,52.9,46.2,29.98,South,180,4.3,6.7,78,0.00,,---,0.00,VWS V13.01,2013-03-18 18:39:00,
2013-03-18 20:44:00,52.7,46.0,29.98,South,180,4.7,4.7,78,0.00,,---,0.00,VWS V13.01,2013-03-18 18:44:00,
2013-03-18 20:49:00,52.7,46.0,29.98,SSW,202,3.6,7.4,78,0.00,,---,0.00,VWS V13.01,2013-03-18 18:49:00,
2013-03-18 20:54:00,52.7,46.0,29.98,South,180,5.6,5.6,78,0.00,,---,0.00,VWS V13.01,2013-03-18 18:54:00,
2013-03-18 20:59:00,52.7,46.0,29.98,SE,135,3.4,6.7,78,0.00,,---,0.00,VWS V13.01,2013-03-18 18:59:00,
2013-03-18 21:04:00,52.7,46.0,29.97,SSE,157,6.3,6.5,78,0.00,,---,0.00,VWS V13.01,2013-03-18 19:04:00,
2013-03-18 21:09:00,52.7,46.0,29.97,SW,225,3.8,8.7,78,0.00,,---,0.00,VWS V13.01,2013-03-18 19:09:00,
2013-03-18 21:14:00,52.7,46.0,29.98,SSW,202,3.4,5.1,78,0.00,,---,0.00,VWS V13.01,2013-03-18 19:14:00,
2013-03-18 21:20:00,52.7,46.0,29.97,SSW,202,1.8,5.8,78,0.00,,---,0.00,VWS V13.01,2013-03-18 19:20:00,
2013-03-18 21:25:00,52.7,46.0,29.97,South,180,0.0,3.4,78,0.00,,---,0.00,VWS V13.01,2013-03-18 19:25:00,
2013-03-18 21:30:00,52.7,46.0,29.97,SSE,157,0.0,3.8,78,0.00,,---,0.00,VWS V13.01,2013-03-18 19:30:00,
2013-03-18 21:35:00,52.7,46.0,29.97,South,180,0.0,1.3,78,0.00,,---,0.00,VWS V13.01,2013-03-18 19:35:00,
2013-03-18 21:40:00,52.7,46.0,29.97,South,180,5.1,5.1,78,0.00,,---,0.00,VWS V13.01,2013-03-18 19:40:00,
2013-03-18 21:45:00,52.7,46.0,29.96,SSE,157,1.6,3.8,78,0.00,,---,0.00,VWS V13.01,2013-03-18 19:45:00,
2013-03-18 21:50:00,52.7,46.0,29.97,South,180,3.4,3.4,78,0.00,,---,0.00,VWS V13.01,2013-03-18 19:50:00,
2013-03-18 21:55:00,52.7,46.0,29.97,South,180,4.3,4.3,78,0.00,,---,0.00,VWS V13.01,2013-03-18 19:55:00,
2013-03-18 22:00:00,52.9,46.2,29.97,SSW,202,6.5,6.5,78,0.00,,---,0.00,VWS V13.01,2013-03-18 20:00:00,
2013-03-18 22:05:00,52.9,46.2,29.97,South,180,0.0,2.2,78,0.00,,---,0.00,VWS V13.01,2013-03-18 20:05:00,
2013-03-18 22:10:00,52.9,46.2,29.97,SSE,157,0.0,3.1,78,0.00,,---,0.00,VWS V13.01,2013-03-18 20:10:00,
2013-03-18 22:15:00,52.9,46.2,29.96,South,180,2.2,4.5,78,0.00,,---,0.00,VWS V13.01,2013-03-18 20:15:00,
2013-03-18 22:20:00,52.7,46.0,29.95,SE,135,0.0,1.6,78,0.00,,---,0.00,VWS V13.01,2013-03-18 20:20:00,
2013-03-18 22:25:00,52.7,46.0,29.95,South,180,0.0,4.0,78,0.00,,---,0.00,VWS V13.01,2013-03-18 20:25:00,
2013-03-18 22:30:00,52.7,46.0,29.95,SSE,157,0.9,0.9,78,0.00,,---,0.00,VWS V13.01,2013-03-18 20:30:00,
2013-03-18 22:35:00,52.5,45.8,29.94,South,180,1.8,2.9,78,0.00,,---,0.00,VWS V13.01,2013-03-18 20:35:00,
2013-03-18 22:40:00,52.5,45.8,29.94,SSE,157,2.0,2.9,78,0.00,,---,0.00,VWS V13.01,2013-03-18 20:40:00,
2013-03-18 22:45:00,52.5,45.8,29.94,SSW,202,0.0,7.6,78,0.00,,---,0.00,VWS V13.01,2013-03-18 20:45:00,
2013-03-18 22:50:00,52.5,45.8,29.95,South,180,4.0,4.0,78,0.00,,---,0.00,VWS V13.01,2013-03-18 20:50:00,
2013-03-18 22:55:00,52.5,45.8,29.94,SSE,157,1.3,4.7,78,0.00,,---,0.00,VWS V13.01,2013-03-18 20:55:00,
2013-03-18 23:00:00,52.7,46.0,29.94,SSW,202,1.3,1.3,78,0.00,,---,0.00,VWS V13.01,2013-03-18 21:00:00,
2013-03-18 23:05:00,52.7,46.4,29.94,SSE,157,4.7,8.5,79,0.00,,---,0.00,VWS V13.01,2013-03-18 21:05:00,
2013-03-18 23:10:00,52.7,46.4,29.94,SSE,157,0.0,4.7,79,0.00,,---,0.00,VWS V13.01,2013-03-18 21:10:00,
2013-03-18 23:15:00,52.9,46.6,29.94,SE,135,0.0,5.1,79,0.00,,---,0.00,VWS V13.01,2013-03-18 21:15:00,
2013-03-18 23:20:00,52.9,46.6,29.94,SE,135,0.0,3.8,79,0.00,,---,0.00,VWS V13.01,2013-03-18 21:20:00,
2013-03-18 23:25:00,52.9,46.6,29.95,SSE,157,0.0,5.4,79,0.00,,---,0.00,VWS V13.01,2013-03-18 21:25:00,
2013-03-18 23:30:00,52.9,46.6,29.95,South,180,6.3,6.3,79,0.00,,---,0.00,VWS V13.01,2013-03-18 21:30:00,
2013-03-18 23:35:00,52.9,46.6,29.95,SE,135,1.1,4.5,79,0.00,,---,0.00,VWS V13.01,2013-03-18 21:35:00,
2013-03-18 23:40:00,53.1,46.8,29.94,SSW,202,4.3,4.3,79,0.00,,---,0.00,VWS V13.01,2013-03-18 21:40:00,
2013-03-18 23:45:00,53.2,46.9,29.94,South,180,1.8,3.1,79,0.00,,---,0.00,VWS V13.01,2013-03-18 21:45:00,
2013-03-18 23:50:00,53.2,46.9,29.94,SE,135,0.0,3.1,79,0.00,,---,0.00,VWS V13.01,2013-03-18 21:50:00,
2013-03-18 23:55:00,53.2,46.9,29.94,SSW,202,2.2,6.5,79,0.00,,---,0.00,VWS V13.01,2013-03-18 21:55:00,